Sumiha, Russia
Current Conditions -  °F | °C
As of 4:30 AM on Wednesday 22 Oct 2014 (Local Time) from USCC Reporting Station
Moderate Snow Moderate Snow  
Wind Chill: -6°   Ceiling: 300
Heat Index: -3°   Visibility: 1.2mi
Dew Point: -3°   Wind: 4mph
Humidity: 100%   Direction: 80°E
Pressure: 29.71"   Gusts: NA
Location:  55.23°N, 63.32°E
Report Text: USCC 212330Z 08002MPS 2000 SN BR OVC003 M03/M03 Q1006 09350045TEMPO 0500 FZFG VV002 RMK QBB100 QFE735
Loading
Personal Weather Stations






























Interactive Weather Map
Tropical Storm Tracking
New forecast layout! Learn more

10-Day Weather Forecast

Advertisements
Track Severe Weather on mobile